createdAt,value
2018-11-05T00:00:36.890Z,8.70
2018-11-05T00:03:06.225Z,8.80
2018-11-05T00:05:34.858Z,8.23
2018-11-05T00:08:03.220Z,8.13
2018-11-05T00:10:31.552Z,7.73
2018-11-05T00:12:59.822Z,6.80
2018-11-05T00:15:28.126Z,7.97
2018-11-05T00:17:56.415Z,7.93
2018-11-05T00:20:24.717Z,8.40
2018-11-05T00:22:53.032Z,8.50
2018-11-05T00:25:21.297Z,7.90
2018-11-05T00:27:49.623Z,7.93
2018-11-05T00:30:17.902Z,8.33
2018-11-05T00:32:46.208Z,7.87
2018-11-05T00:35:14.630Z,8.20
2018-11-05T00:37:42.877Z,8.33
2018-11-05T00:40:13.593Z,6.87
2018-11-05T00:42:42.434Z,7.70
2018-11-05T00:45:11.618Z,8.23
2018-11-05T00:47:40.211Z,8.77
2018-11-05T00:50:10.224Z,7.33
2018-11-05T00:52:38.519Z,7.90
2018-11-05T00:55:07.332Z,6.60
2018-11-05T00:57:35.685Z,7.10
2018-11-05T01:00:05.227Z,8.10
2018-11-05T01:02:33.497Z,8.80
2018-11-05T01:05:01.738Z,8.80
2018-11-05T01:07:29.977Z,7.53
2018-11-05T01:09:58.249Z,7.53
2018-11-05T01:12:26.493Z,8.83
2018-11-05T01:14:54.793Z,9.57
2018-11-05T01:17:23.041Z,8.03
2018-11-05T01:19:51.316Z,7.10
2018-11-05T01:22:19.594Z,8.83
2018-11-05T01:24:47.861Z,7.40
2018-11-05T01:27:16.117Z,9.00
2018-11-05T01:29:44.362Z,8.53
2018-11-05T01:32:12.640Z,8.73
2018-11-05T01:34:40.917Z,9.40
2018-11-05T01:37:09.226Z,9.07
2018-11-05T01:39:37.409Z,9.53
2018-11-05T01:42:05.724Z,9.33
2018-11-05T01:44:33.964Z,9.90
2018-11-05T01:47:02.339Z,10.37
2018-11-05T01:49:30.599Z,11.00
2018-11-05T01:51:58.880Z,10.27
2018-11-05T01:54:27.201Z,10.17
2018-11-05T01:56:55.781Z,10.10
2018-11-05T01:59:24.148Z,10.17
2018-11-05T02:01:52.416Z,10.03
2018-11-05T02:04:20.738Z,9.83
2018-11-05T02:06:49.086Z,8.97
2018-11-05T02:09:17.356Z,10.80
2018-11-05T02:11:45.776Z,9.93
2018-11-05T02:14:14.025Z,9.97
2018-11-05T02:16:43.349Z,11.30
2018-11-05T02:19:11.604Z,11.17
2018-11-05T02:21:39.857Z,9.90
2018-11-05T02:24:08.291Z,8.60
2018-11-05T02:26:36.558Z,9.07
2018-11-05T02:29:04.892Z,9.07
2018-11-05T02:31:33.198Z,8.47
2018-11-05T02:34:01.461Z,8.10
2018-11-05T02:36:30.011Z,8.47
2018-11-05T02:38:58.273Z,8.67
2018-11-05T02:41:27.920Z,8.27
2018-11-05T02:43:56.205Z,8.07
2018-11-05T02:46:24.480Z,7.63
2018-11-05T02:48:52.750Z,7.87
2018-11-05T02:51:21.021Z,8.13
2018-11-05T02:53:49.248Z,7.87
2018-11-05T02:56:17.566Z,7.10
2018-11-05T02:58:45.813Z,8.60
2018-11-05T03:01:14.094Z,9.07
2018-11-05T03:03:42.817Z,9.03
2018-11-05T03:06:11.060Z,8.53
2018-11-05T03:08:39.348Z,7.80
2018-11-05T03:11:07.643Z,9.80
2018-11-05T03:13:35.908Z,8.20
2018-11-05T03:16:04.210Z,7.43
2018-11-05T03:18:32.442Z,8.33
2018-11-05T03:21:00.676Z,9.03
2018-11-05T03:23:28.953Z,7.83
2018-11-05T03:25:57.221Z,8.13
2018-11-05T03:28:25.467Z,6.73
2018-11-05T03:30:53.726Z,6.57
2018-11-05T03:33:21.954Z,6.57
2018-11-05T03:35:50.303Z,6.73
2018-11-05T03:38:18.505Z,6.47
2018-11-05T03:40:46.780Z,6.70
2018-11-05T03:43:15.011Z,6.60
2018-11-05T03:45:43.273Z,6.73
2018-11-05T03:48:11.525Z,6.93
2018-11-05T03:50:39.819Z,7.17
2018-11-05T03:53:08.054Z,7.03
2018-11-05T03:55:36.423Z,6.60
2018-11-05T03:58:04.842Z,7.37
2018-11-05T04:00:33.109Z,5.73
2018-11-05T04:03:01.371Z,6.53
2018-11-05T04:05:29.605Z,6.37
2018-11-05T04:07:57.919Z,7.30
2018-11-05T04:10:26.216Z,7.23
2018-11-05T04:12:54.474Z,6.37
2018-11-05T04:15:22.877Z,6.97
2018-11-05T04:17:51.021Z,6.10
2018-11-05T04:20:19.337Z,6.33
2018-11-05T04:22:47.581Z,6.53
2018-11-05T04:25:15.851Z,6.70
2018-11-05T04:27:44.207Z,7.30
2018-11-05T04:30:15.436Z,6.20
2018-11-05T04:32:43.853Z,6.13
2018-11-05T04:35:12.528Z,6.60
2018-11-05T04:37:40.840Z,6.83
2018-11-05T04:40:10.209Z,6.57
2018-11-05T04:42:38.540Z,7.37
2018-11-05T04:45:07.945Z,6.20
2018-11-05T04:47:36.201Z,6.27
2018-11-05T04:50:05.095Z,7.13
2018-11-05T04:52:33.349Z,6.73
2018-11-05T04:55:01.767Z,7.57
2018-11-05T04:57:30.045Z,7.80
2018-11-05T05:00:00.116Z,7.30
2018-11-05T05:02:28.413Z,7.23
2018-11-05T05:04:56.652Z,6.77
2018-11-05T05:07:24.892Z,6.57
2018-11-05T05:09:53.189Z,7.80
2018-11-05T05:12:21.457Z,5.70
2018-11-05T05:14:49.728Z,5.70
2018-11-05T05:17:17.952Z,5.43
2018-11-05T05:19:46.196Z,5.70
2018-11-05T05:22:14.469Z,5.47
2018-11-05T05:24:43.541Z,5.73
2018-11-05T05:27:11.948Z,6.00
2018-11-05T05:29:41.238Z,5.67
2018-11-05T05:32:09.501Z,5.60
2018-11-05T05:34:37.766Z,4.73
2018-11-05T05:37:06.016Z,5.50
2018-11-05T05:39:34.260Z,4.50
2018-11-05T05:42:02.498Z,5.23
2018-11-05T05:44:30.749Z,4.50
2018-11-05T05:46:59.049Z,5.23
2018-11-05T05:49:27.303Z,5.00
2018-11-05T05:51:55.564Z,5.47
2018-11-05T05:54:23.803Z,4.97
2018-11-05T05:56:52.081Z,4.77
2018-11-05T05:59:20.321Z,4.33
2018-11-05T06:01:48.588Z,4.33
2018-11-05T06:04:16.890Z,4.90
2018-11-05T06:06:45.139Z,4.53
2018-11-05T06:09:13.375Z,4.90
2018-11-05T06:11:41.608Z,4.67
2018-11-05T06:14:09.858Z,4.40
2018-11-05T06:16:38.199Z,4.47
2018-11-05T06:19:13.356Z,4.83
2018-11-05T06:21:41.670Z,4.33
2018-11-05T06:24:09.920Z,4.70
2018-11-05T06:26:38.221Z,4.90
2018-11-05T06:29:06.516Z,4.43
2018-11-05T06:31:34.763Z,4.47
2018-11-05T06:34:02.995Z,4.90
2018-11-05T06:36:31.257Z,4.90
2018-11-05T06:38:59.550Z,5.20
2018-11-05T06:41:27.915Z,4.77
2018-11-05T06:43:56.096Z,4.50
2018-11-05T06:46:24.278Z,4.70
2018-11-05T06:48:52.596Z,5.63
2018-11-05T06:51:20.780Z,4.80
2018-11-05T06:53:49.048Z,4.77
2018-11-05T06:56:17.288Z,5.07
2018-11-05T06:58:45.550Z,4.77
2018-11-05T07:01:13.829Z,4.57
2018-11-05T07:03:42.206Z,4.80
2018-11-05T07:06:10.432Z,5.00
2018-11-05T07:08:38.737Z,4.93
2018-11-05T07:11:07.004Z,5.80
2018-11-05T07:13:35.273Z,6.30
2018-11-05T07:16:03.593Z,5.20
2018-11-05T07:18:32.015Z,5.17
2018-11-05T07:21:00.096Z,5.50
2018-11-05T07:23:28.373Z,4.90
2018-11-05T07:25:56.604Z,4.97
2018-11-05T07:28:24.876Z,4.90
2018-11-05T07:30:53.108Z,4.50
2018-11-05T07:33:21.443Z,4.80
2018-11-05T07:35:49.613Z,4.63
2018-11-05T07:38:17.873Z,5.17
2018-11-05T07:40:46.299Z,5.17
2018-11-05T07:43:14.544Z,4.93
2018-11-05T07:45:42.790Z,4.63
2018-11-05T07:48:11.112Z,5.20
2018-11-05T07:50:39.424Z,5.63
2018-11-05T07:53:07.609Z,4.77
2018-11-05T07:55:35.858Z,4.53
2018-11-05T07:58:04.099Z,5.53
2018-11-05T08:00:37.661Z,5.00
2018-11-05T08:03:06.258Z,6.27
2018-11-05T08:05:34.553Z,5.23
2018-11-05T08:08:02.838Z,8.67
2018-11-05T08:10:31.151Z,8.03
2018-11-05T08:12:59.973Z,6.73
2018-11-05T08:15:29.083Z,6.97
2018-11-05T08:17:57.349Z,7.00
2018-11-05T08:20:25.668Z,6.23
2018-11-05T08:22:53.939Z,16.10
2018-11-05T08:25:22.169Z,7.37
2018-11-05T08:27:50.497Z,7.10
2018-11-05T08:30:20.134Z,6.37
2018-11-05T08:32:48.390Z,6.67
2018-11-05T08:35:16.621Z,7.27
2018-11-05T08:37:45.995Z,6.77
2018-11-05T08:40:17.460Z,6.13
2018-11-05T08:42:46.556Z,6.50
2018-11-05T08:45:16.285Z,6.63
2018-11-05T08:47:44.586Z,6.20
2018-11-05T08:50:14.057Z,6.03
2018-11-05T08:52:42.229Z,6.10
2018-11-05T08:55:12.841Z,6.20
2018-11-05T08:57:41.754Z,6.27
2018-11-05T09:01:18.486Z,7.00
2018-11-05T09:03:48.399Z,6.93
2018-11-05T09:06:17.428Z,6.20
2018-11-05T09:08:46.033Z,7.37
2018-11-05T09:11:14.770Z,6.90
2018-11-05T09:13:42.660Z,6.07
2018-11-05T09:16:10.954Z,6.60
2018-11-05T09:18:39.148Z,7.43
2018-11-05T09:21:07.459Z,6.53
2018-11-05T09:23:35.712Z,6.40
2018-11-05T09:26:03.977Z,7.40
2018-11-05T09:28:32.216Z,6.23
2018-11-05T09:31:00.505Z,6.43
2018-11-05T09:33:28.742Z,6.80
2018-11-05T09:35:56.963Z,6.47
2018-11-05T09:38:25.254Z,6.07
2018-11-05T09:40:53.503Z,6.07
2018-11-05T09:43:21.745Z,5.67
2018-11-05T09:45:50.017Z,6.50
2018-11-05T09:48:18.277Z,6.50
2018-11-05T09:50:46.590Z,6.73
2018-11-05T09:53:14.841Z,8.03
2018-11-05T09:55:43.082Z,7.80
2018-11-05T09:58:11.352Z,8.33
2018-11-05T10:00:40.635Z,7.73
2018-11-05T10:03:16.050Z,7.90
2018-11-05T10:05:44.294Z,7.43
2018-11-05T10:08:12.521Z,7.73
2018-11-05T10:10:40.760Z,8.70
2018-11-05T10:13:09.017Z,7.00
2018-11-05T10:15:37.261Z,8.77
2018-11-05T10:18:05.796Z,8.30
2018-11-05T10:20:34.018Z,8.90
2018-11-05T10:23:02.406Z,8.73
2018-11-05T10:25:30.665Z,7.03
2018-11-05T10:35:00.492Z,7.37
2018-11-05T10:37:28.761Z,8.87
2018-11-05T10:39:57.105Z,8.07
2018-11-05T10:42:25.293Z,8.77
2018-11-05T10:44:53.529Z,9.10
2018-11-05T10:47:21.794Z,9.93
2018-11-05T10:49:50.094Z,10.23
2018-11-05T10:52:18.430Z,9.33
2018-11-05T10:54:46.616Z,9.87
2018-11-05T10:57:14.956Z,5.87
2018-11-05T10:59:43.323Z,6.43
2018-11-05T11:02:17.065Z,7.43
2018-11-05T11:04:45.314Z,7.33
2018-11-05T11:07:13.568Z,7.73
2018-11-05T11:09:41.863Z,8.33
2018-11-05T11:12:10.086Z,7.60
2018-11-05T11:14:38.311Z,7.70
2018-11-05T11:17:06.564Z,8.40
2018-11-05T11:19:35.026Z,6.43
2018-11-05T11:22:03.328Z,6.10
2018-11-05T11:24:31.521Z,5.37
2018-11-05T11:26:59.798Z,7.80
2018-11-05T11:29:28.254Z,5.83
2018-11-05T11:31:56.400Z,6.27
2018-11-05T11:34:24.715Z,6.97
2018-11-05T11:36:52.989Z,6.53
2018-11-05T11:39:21.232Z,7.03
2018-11-05T11:41:49.485Z,5.20
2018-11-05T11:44:17.986Z,5.87
2018-11-05T11:46:45.994Z,5.63
2018-11-05T11:49:14.253Z,5.63
2018-11-05T11:51:42.527Z,5.70
2018-11-05T11:54:10.768Z,4.50
2018-11-05T11:56:39.064Z,6.67
2018-11-05T11:59:07.346Z,6.00
2018-11-05T12:01:41.035Z,5.83
2018-11-05T12:04:09.361Z,5.80
2018-11-05T12:06:37.633Z,5.93
2018-11-05T12:09:07.295Z,5.67
2018-11-05T12:11:35.564Z,6.10
2018-11-05T12:14:03.954Z,4.87
2018-11-05T12:16:32.080Z,4.97
2018-11-05T12:19:00.318Z,6.13
2018-11-05T12:21:28.592Z,6.17
2018-11-05T12:23:57.397Z,5.43
2018-11-05T12:26:25.637Z,6.13
2018-11-05T12:28:53.868Z,7.20
2018-11-05T12:31:22.166Z,5.53
2018-11-05T12:33:50.475Z,5.20
2018-11-05T12:36:18.717Z,6.00
2018-11-05T12:38:47.059Z,4.73
2018-11-05T12:41:15.696Z,5.40
2018-11-05T12:43:43.952Z,5.57
2018-11-05T12:46:12.186Z,4.57
2018-11-05T12:48:40.476Z,4.97
2018-11-05T12:51:08.741Z,4.80
2018-11-05T12:53:37.068Z,4.33
2018-11-05T12:56:05.342Z,4.97
2018-11-05T12:58:33.600Z,4.00
2018-11-05T13:01:03.037Z,4.97
2018-11-05T13:03:31.266Z,5.00
2018-11-05T13:05:59.532Z,4.63
2018-11-05T13:08:28.101Z,4.10
2018-11-05T13:10:56.588Z,4.70
2018-11-05T13:13:24.865Z,5.07
2018-11-05T13:15:53.137Z,4.17
2018-11-05T13:18:21.443Z,4.17
2018-11-05T13:20:49.668Z,4.63
2018-11-05T13:23:23.422Z,4.50
2018-11-05T13:25:51.756Z,3.83
2018-11-05T13:28:20.083Z,4.40
2018-11-05T13:30:48.318Z,3.67
2018-11-05T13:33:16.585Z,4.40
2018-11-05T13:35:44.824Z,3.83
2018-11-05T13:38:13.717Z,4.20
2018-11-05T13:40:41.338Z,3.87
2018-11-05T13:43:09.608Z,4.27
2018-11-05T13:45:38.144Z,3.80
2018-11-05T13:48:06.539Z,3.70
2018-11-05T13:50:34.410Z,3.80
2018-11-05T13:53:02.661Z,4.13
2018-11-05T13:55:30.941Z,4.20
2018-11-05T13:57:59.251Z,4.70
2018-11-05T14:00:27.533Z,4.00
2018-11-05T14:02:55.763Z,4.43
2018-11-05T14:05:24.057Z,5.03
2018-11-05T14:07:52.342Z,4.17
2018-11-05T14:10:21.369Z,4.23
2018-11-05T14:12:50.043Z,4.03
2018-11-05T14:15:18.204Z,4.47
2018-11-05T14:17:46.736Z,5.20
2018-11-05T14:20:16.104Z,3.90
2018-11-05T14:22:44.572Z,3.97
2018-11-05T14:25:14.124Z,3.93
2018-11-05T14:27:43.662Z,4.13
2018-11-05T14:30:12.657Z,3.87
2018-11-05T14:32:42.029Z,3.97
2018-11-05T14:35:11.240Z,4.23
2018-11-05T14:37:39.726Z,3.93
2018-11-05T14:40:09.337Z,3.90
2018-11-05T14:42:37.794Z,3.83
2018-11-05T14:45:08.190Z,4.07
2018-11-05T14:47:36.413Z,3.80
2018-11-05T14:50:06.642Z,3.50
2018-11-05T14:52:34.899Z,3.80
2018-11-05T14:55:03.140Z,3.97
2018-11-05T14:57:31.407Z,4.17
2018-11-05T14:59:59.657Z,3.90
2018-11-05T15:02:33.407Z,4.10
2018-11-05T15:05:01.664Z,3.67
2018-11-05T15:07:29.951Z,3.73
2018-11-05T15:09:58.158Z,3.60
2018-11-05T15:12:26.477Z,3.57
2018-11-05T15:14:54.782Z,3.70
2018-11-05T15:17:23.006Z,4.13
2018-11-05T15:19:51.675Z,3.90
2018-11-05T15:22:19.546Z,4.57
2018-11-05T15:24:47.822Z,3.43
2018-11-05T15:27:16.077Z,3.90
2018-11-05T15:29:44.333Z,3.87
2018-11-05T15:32:12.593Z,3.70
2018-11-05T15:34:40.826Z,3.57
2018-11-05T15:37:09.070Z,3.60
2018-11-05T15:39:37.362Z,3.27
2018-11-05T15:42:06.117Z,3.60
2018-11-05T15:44:34.428Z,4.43
2018-11-05T15:47:19.390Z,4.30
2018-11-05T15:49:47.633Z,3.43
2018-11-05T15:52:16.353Z,3.53
2018-11-05T15:54:44.196Z,3.77
2018-11-05T15:57:12.449Z,3.63
2018-11-05T15:59:40.740Z,3.67
2018-11-05T16:02:09.805Z,3.73
2018-11-05T16:04:38.731Z,3.90
2018-11-05T16:07:07.125Z,3.43
2018-11-05T16:09:35.472Z,4.23
2018-11-05T16:12:03.686Z,4.03
2018-11-05T16:14:31.946Z,3.23
2018-11-05T16:17:00.448Z,3.93
2018-11-05T16:19:28.745Z,3.60
2018-11-05T16:21:57.076Z,3.23
2018-11-05T16:24:25.970Z,3.67
2018-11-05T16:26:54.145Z,4.80
2018-11-05T16:29:22.365Z,4.03
2018-11-05T16:31:50.601Z,3.50
2018-11-05T16:34:18.849Z,3.93
2018-11-05T16:36:47.077Z,3.97
2018-11-05T16:39:15.344Z,3.90
2018-11-05T16:41:43.664Z,3.90
2018-11-05T16:44:12.049Z,3.77
2018-11-05T16:46:40.634Z,4.50
2018-11-05T16:49:08.930Z,3.83
2018-11-05T16:51:37.165Z,3.53
2018-11-05T16:54:06.106Z,3.97
2018-11-05T16:56:35.096Z,4.20
2018-11-05T16:59:03.685Z,4.90
2018-11-05T17:01:32.405Z,4.63
2018-11-05T17:04:00.349Z,4.97
2018-11-05T17:06:28.579Z,5.03
2018-11-05T17:08:57.302Z,4.73
2018-11-05T17:11:25.522Z,6.13
2018-11-05T17:13:53.845Z,5.20
2018-11-05T17:16:22.041Z,5.80
2018-11-05T17:18:50.294Z,5.40
2018-11-05T17:21:18.529Z,5.57
2018-11-05T17:23:46.837Z,5.87
2018-11-05T17:26:15.120Z,6.33
2018-11-05T17:28:43.341Z,5.80
2018-11-05T17:31:11.604Z,5.77
2018-11-05T17:33:40.405Z,5.60
2018-11-05T17:36:08.629Z,5.10
2018-11-05T17:38:36.871Z,5.03
2018-11-05T17:41:05.822Z,4.97
2018-11-05T17:43:34.060Z,5.10
2018-11-05T17:46:02.328Z,6.83
2018-11-05T17:48:30.936Z,6.20
2018-11-05T17:50:59.218Z,7.07
2018-11-05T17:53:27.497Z,6.53
2018-11-05T17:55:55.743Z,5.50
2018-11-05T17:58:24.009Z,6.13
2018-11-05T18:00:52.273Z,6.90
2018-11-05T18:03:20.744Z,6.47
2018-11-05T18:05:49.000Z,6.67
2018-11-05T18:08:17.314Z,5.83
2018-11-05T18:10:45.809Z,6.63
2018-11-05T18:13:15.213Z,6.70
2018-11-05T18:15:43.597Z,6.90
2018-11-05T18:18:11.917Z,6.30
2018-11-05T18:20:40.164Z,5.83
2018-11-05T18:23:08.466Z,6.60
2018-11-05T18:25:36.742Z,6.73
2018-11-05T18:28:05.268Z,6.07
2018-11-05T18:30:33.527Z,6.53
2018-11-05T18:33:01.793Z,7.87
2018-11-05T18:35:30.045Z,6.70
2018-11-05T18:37:58.338Z,7.23
2018-11-05T18:40:26.591Z,7.20
2018-11-05T18:42:54.863Z,8.30
2018-11-05T18:45:23.126Z,8.70
2018-11-05T18:47:51.376Z,8.70
2018-11-05T18:50:19.698Z,8.30
2018-11-05T18:52:47.909Z,8.40
2018-11-05T18:55:17.305Z,7.73
2018-11-05T18:57:45.585Z,7.60
2018-11-05T19:00:17.882Z,8.87
2018-11-05T19:02:46.269Z,8.53
2018-11-05T19:05:14.470Z,8.87
2018-11-05T19:07:42.811Z,8.03
2018-11-05T19:10:11.221Z,7.60
2018-11-05T19:12:39.548Z,7.37
2018-11-05T19:15:09.307Z,7.40
2018-11-05T19:17:37.531Z,7.93
2018-11-05T19:20:06.795Z,8.07
2018-11-05T19:22:35.195Z,7.27
2018-11-05T19:25:04.070Z,7.83
2018-11-05T19:27:32.343Z,7.27
2018-11-05T19:30:00.769Z,8.20
2018-11-05T19:32:29.089Z,6.87
2018-11-05T19:34:57.333Z,7.00
2018-11-05T19:37:25.616Z,7.50
2018-11-05T19:39:54.675Z,6.17
2018-11-05T19:42:22.389Z,6.73
2018-11-05T19:44:50.445Z,7.40
2018-11-05T19:47:18.721Z,7.07
2018-11-05T19:49:47.194Z,7.27
2018-11-05T19:52:15.399Z,7.50
2018-11-05T19:54:43.836Z,8.67
2018-11-05T19:57:12.279Z,7.23
2018-11-05T19:59:40.526Z,7.23
2018-11-05T20:02:08.812Z,8.77
2018-11-05T20:04:37.200Z,9.40
2018-11-05T20:07:05.483Z,9.07
2018-11-05T20:09:33.765Z,8.93
2018-11-05T20:12:02.032Z,9.67
2018-11-05T20:14:30.296Z,8.80
2018-11-05T20:16:58.762Z,8.90
2018-11-05T20:19:27.096Z,9.23
2018-11-05T20:21:55.450Z,8.87
2018-11-05T20:24:23.985Z,8.23
2018-11-05T20:26:52.262Z,8.70
2018-11-05T20:29:20.528Z,7.90
2018-11-05T20:31:48.941Z,8.97
2018-11-05T20:34:17.177Z,8.43
2018-11-05T20:36:45.288Z,8.90
2018-11-05T20:39:13.574Z,8.43
2018-11-05T20:41:41.859Z,9.13
2018-11-05T20:44:10.107Z,8.63
2018-11-05T20:46:38.606Z,7.67
2018-11-05T20:49:06.765Z,9.20
2018-11-05T20:51:35.029Z,8.40
2018-11-05T20:54:03.398Z,8.00
2018-11-05T20:56:31.561Z,8.73
2018-11-05T20:58:59.851Z,10.47
2018-11-05T21:01:28.097Z,9.53
2018-11-05T21:03:56.350Z,9.33
2018-11-05T21:06:24.621Z,9.73
2018-11-05T21:08:52.899Z,8.80
2018-11-05T21:11:21.120Z,8.80
2018-11-05T21:13:49.426Z,8.97
2018-11-05T21:16:18.038Z,8.97
2018-11-05T21:18:46.314Z,7.97
2018-11-05T21:21:14.691Z,8.50
2018-11-05T21:23:42.904Z,8.10
2018-11-05T21:26:11.127Z,8.27
2018-11-05T21:28:39.388Z,8.07
2018-11-05T21:31:07.617Z,8.87
2018-11-05T21:33:35.942Z,8.80
2018-11-05T21:36:04.195Z,8.87
2018-11-05T21:38:32.462Z,9.40
2018-11-05T21:41:00.684Z,9.13
2018-11-05T21:43:28.969Z,9.60
2018-11-05T21:45:57.215Z,8.97
2018-11-05T21:48:25.471Z,8.03
2018-11-05T21:50:53.736Z,8.97
2018-11-05T21:53:21.966Z,7.90
2018-11-05T21:55:50.318Z,7.23
2018-11-05T21:58:18.649Z,8.13
2018-11-05T22:00:46.884Z,7.30
2018-11-05T22:03:16.118Z,8.93
2018-11-05T22:05:44.411Z,8.20
2018-11-05T22:08:12.673Z,8.10
2018-11-05T22:10:40.925Z,8.10
2018-11-05T22:13:09.222Z,7.80
2018-11-05T22:15:52.036Z,8.27
2018-11-05T22:18:20.317Z,8.73
2018-11-05T22:20:48.564Z,7.47
2018-11-05T22:23:16.838Z,8.17
2018-11-05T22:25:45.093Z,7.90
2018-11-05T22:28:13.335Z,9.13
2018-11-05T22:30:41.601Z,8.30
2018-11-05T22:33:09.873Z,8.03
2018-11-05T22:35:38.142Z,8.40
2018-11-05T22:38:06.672Z,7.80
2018-11-05T22:40:34.896Z,7.27
2018-11-05T22:43:03.099Z,9.10
2018-11-05T22:45:31.344Z,7.93
2018-11-05T22:47:59.581Z,8.23
2018-11-05T22:50:27.958Z,8.80
2018-11-05T22:52:56.132Z,8.73
2018-11-05T22:55:24.391Z,7.47
2018-11-05T22:57:52.617Z,8.27
2018-11-05T23:00:26.235Z,8.77
2018-11-05T23:02:59.958Z,8.20
2018-11-05T23:05:28.201Z,8.93
2018-11-05T23:07:56.804Z,8.53
2018-11-05T23:10:25.105Z,8.03
2018-11-05T23:12:53.340Z,7.47
2018-11-05T23:15:21.740Z,8.10
2018-11-05T23:17:50.417Z,8.50
2018-11-05T23:20:18.645Z,8.37
2018-11-05T23:22:47.309Z,8.33
2018-11-05T23:25:15.589Z,7.87
2018-11-05T23:27:43.845Z,7.33
2018-11-05T23:30:13.091Z,7.43
2018-11-05T23:32:41.556Z,7.87
2018-11-05T23:35:10.485Z,7.67
2018-11-05T23:37:39.751Z,6.73
2018-11-05T23:40:08.577Z,7.40
2018-11-05T23:42:37.658Z,7.40
2018-11-05T23:45:07.818Z,6.97
2018-11-05T23:47:36.038Z,7.43
2018-11-05T23:50:05.070Z,7.63
2018-11-05T23:52:33.354Z,7.80
2018-11-05T23:55:01.626Z,7.33
2018-11-05T23:57:29.881Z,7.67
2018-11-05T23:59:58.136Z,7.43
